sensor_id;sensor_type;location;lat;lon;timestamp;temperature;humidity
61339;DHT22;47213;52.362;4.606;2023-10-09T00:00:56;17.80;99.90
61339;DHT22;47213;52.362;4.606;2023-10-09T00:05:56;17.90;99.90
61339;DHT22;47213;52.362;4.606;2023-10-09T00:15:56;18.00;99.90
61339;DHT22;47213;52.362;4.606;2023-10-09T00:20:56;18.10;99.90
61339;DHT22;47213;52.362;4.606;2023-10-09T00:25:56;18.20;99.90
61339;DHT22;47213;52.362;4.606;2023-10-09T00:40:56;18.30;99.90
61339;DHT22;47213;52.362;4.606;2023-10-09T00:50:57;18.40;99.90
61339;DHT22;47213;52.362;4.606;2023-10-09T01:00:56;18.50;99.90
61339;DHT22;47213;52.362;4.606;2023-10-09T01:10:57;18.60;99.90
61339;DHT22;47213;52.362;4.606;2023-10-09T01:50:56;18.70;99.90
61339;DHT22;47213;52.362;4.606;2023-10-09T01:55:56;18.60;99.90
61339;DHT22;47213;52.362;4.606;2023-10-09T02:00:56;18.70;99.90
61339;DHT22;47213;52.362;4.606;2023-10-09T02:05:56;18.60;99.90
61339;DHT22;47213;52.362;4.606;2023-10-09T02:15:56;18.70;99.90
61339;DHT22;47213;52.362;4.606;2023-10-09T02:30:56;18.70;99.90
61339;DHT22;47213;52.362;4.606;2023-10-09T02:35:57;18.60;99.90
61339;DHT22;47213;52.362;4.606;2023-10-09T02:40:56;18.70;99.90
61339;DHT22;47213;52.362;4.606;2023-10-09T02:45:56;18.60;99.90
61339;DHT22;47213;52.362;4.606;2023-10-09T02:50:56;18.70;99.90
61339;DHT22;47213;52.362;4.606;2023-10-09T02:55:56;18.60;99.90
61339;DHT22;47213;52.362;4.606;2023-10-09T03:00:56;18.70;99.90
61339;DHT22;47213;52.362;4.606;2023-10-09T03:20:56;18.80;99.90
61339;DHT22;47213;52.362;4.606;2023-10-09T03:25:56;18.70;99.90
61339;DHT22;47213;52.362;4.606;2023-10-09T03:35:56;18.60;99.90
61339;DHT22;47213;52.362;4.606;2023-10-09T03:50:56;18.70;99.90
61339;DHT22;47213;52.362;4.606;2023-10-09T04:05:56;18.80;99.90
61339;DHT22;47213;52.362;4.606;2023-10-09T04:15:56;18.70;99.90
61339;DHT22;47213;52.362;4.606;2023-10-09T04:20:57;18.90;99.90
61339;DHT22;47213;52.362;4.606;2023-10-09T04:25:57;18.70;99.90
61339;DHT22;47213;52.362;4.606;2023-10-09T04:30:57;18.90;99.90
61339;DHT22;47213;52.362;4.606;2023-10-09T04:36:04;18.80;99.90
61339;DHT22;47213;52.362;4.606;2023-10-09T04:40:57;18.90;99.90
61339;DHT22;47213;52.362;4.606;2023-10-09T04:45:58;18.80;99.90
61339;DHT22;47213;52.362;4.606;2023-10-09T04:50:57;18.70;99.90
61339;DHT22;47213;52.362;4.606;2023-10-09T04:55:57;18.80;99.90
61339;DHT22;47213;52.362;4.606;2023-10-09T05:00:57;18.90;99.90
61339;DHT22;47213;52.362;4.606;2023-10-09T05:05:57;18.80;99.90
61339;DHT22;47213;52.362;4.606;2023-10-09T05:10:57;18.90;99.90
61339;DHT22;47213;52.362;4.606;2023-10-09T05:30:57;19.00;99.90
61339;DHT22;47213;52.362;4.606;2023-10-09T05:40:57;19.10;99.90
61339;DHT22;47213;52.362;4.606;2023-10-09T05:45:57;19.20;99.90
61339;DHT22;47213;52.362;4.606;2023-10-09T06:00:57;19.30;99.90
61339;DHT22;47213;52.362;4.606;2023-10-09T06:10:57;19.10;99.90
61339;DHT22;47213;52.362;4.606;2023-10-09T06:15:57;18.90;99.90
61339;DHT22;47213;52.362;4.606;2023-10-09T06:20:57;19.00;99.90
61339;DHT22;47213;52.362;4.606;2023-10-09T06:35:57;18.70;99.90
61339;DHT22;47213;52.362;4.606;2023-10-09T06:40:57;18.80;99.90
61339;DHT22;47213;52.362;4.606;2023-10-09T06:50:57;19.00;99.90
61339;DHT22;47213;52.362;4.606;2023-10-09T07:15:57;19.10;99.90
61339;DHT22;47213;52.362;4.606;2023-10-09T07:20:57;19.50;99.90
61339;DHT22;47213;52.362;4.606;2023-10-09T07:26:01;19.60;99.90
61339;DHT22;47213;52.362;4.606;2023-10-09T07:30:57;19.70;99.90
61339;DHT22;47213;52.362;4.606;2023-10-09T07:35:58;19.50;99.90
61339;DHT22;47213;52.362;4.606;2023-10-09T07:40:57;19.40;99.90
61339;DHT22;47213;52.362;4.606;2023-10-09T07:45:57;19.30;99.90
61339;DHT22;47213;52.362;4.606;2023-10-09T07:50:57;19.40;99.90
61339;DHT22;47213;52.362;4.606;2023-10-09T08:00:57;19.60;99.90
61339;DHT22;47213;52.362;4.606;2023-10-09T08:10:57;19.80;99.90
61339;DHT22;47213;52.362;4.606;2023-10-09T08:20:57;19.90;99.90
61339;DHT22;47213;52.362;4.606;2023-10-09T08:26:01;20.00;99.90
61339;DHT22;47213;52.362;4.606;2023-10-09T08:35:57;20.10;99.90
61339;DHT22;47213;52.362;4.606;2023-10-09T08:40:57;20.40;99.90
61339;DHT22;47213;52.362;4.606;2023-10-09T08:50:57;20.50;99.90
61339;DHT22;47213;52.362;4.606;2023-10-09T08:55:57;20.40;99.90
61339;DHT22;47213;52.362;4.606;2023-10-09T09:00:57;20.60;99.90
61339;DHT22;47213;52.362;4.606;2023-10-09T09:05:58;20.50;99.90
61339;DHT22;47213;52.362;4.606;2023-10-09T09:15:58;20.60;99.90
61339;DHT22;47213;52.362;4.606;2023-10-09T09:20:58;20.90;99.90
61339;DHT22;47213;52.362;4.606;2023-10-09T09:25:57;20.80;99.90
61339;DHT22;47213;52.362;4.606;2023-10-09T09:31:06;21.00;99.90
61339;DHT22;47213;52.362;4.606;2023-10-09T09:35:59;21.10;99.90
61339;DHT22;47213;52.362;4.606;2023-10-09T09:40:57;21.30;99.90
61339;DHT22;47213;52.362;4.606;2023-10-09T09:45:57;21.00;99.90
61339;DHT22;47213;52.362;4.606;2023-10-09T10:01:01;21.30;99.90
61339;DHT22;47213;52.362;4.606;2023-10-09T10:05:57;21.60;99.90
61339;DHT22;47213;52.362;4.606;2023-10-09T10:10:58;22.00;99.90
61339;DHT22;47213;52.362;4.606;2023-10-09T10:15:59;22.40;99.90
61339;DHT22;47213;52.362;4.606;2023-10-09T10:21:09;22.10;99.90
61339;DHT22;47213;52.362;4.606;2023-10-09T10:26:15;22.00;99.90
61339;DHT22;47213;52.362;4.606;2023-10-09T10:30:57;22.20;99.90
61339;DHT22;47213;52.362;4.606;2023-10-09T10:46:02;22.10;99.90
61339;DHT22;47213;52.362;4.606;2023-10-09T10:50:58;22.50;99.90
61339;DHT22;47213;52.362;4.606;2023-10-09T10:55:58;22.30;99.90
61339;DHT22;47213;52.362;4.606;2023-10-09T11:00:58;23.00;99.90
61339;DHT22;47213;52.362;4.606;2023-10-09T11:06:01;23.40;99.90
61339;DHT22;47213;52.362;4.606;2023-10-09T11:11:13;23.50;99.90
61339;DHT22;47213;52.362;4.606;2023-10-09T11:15:58;23.00;99.90
61339;DHT22;47213;52.362;4.606;2023-10-09T11:25:58;22.20;99.90
61339;DHT22;47213;52.362;4.606;2023-10-09T11:31:13;22.10;99.90
61339;DHT22;47213;52.362;4.606;2023-10-09T11:35:58;22.00;99.90
61339;DHT22;47213;52.362;4.606;2023-10-09T11:40:58;21.80;99.90
61339;DHT22;47213;52.362;4.606;2023-10-09T11:46:13;21.50;99.90
61339;DHT22;47213;52.362;4.606;2023-10-09T11:50:58;21.60;99.90
61339;DHT22;47213;52.362;4.606;2023-10-09T11:55:58;21.50;99.90
61339;DHT22;47213;52.362;4.606;2023-10-09T12:00:58;21.40;99.90
61339;DHT22;47213;52.362;4.606;2023-10-09T12:05:59;21.30;99.90
61339;DHT22;47213;52.362;4.606;2023-10-09T12:10:58;21.20;99.90
61339;DHT22;47213;52.362;4.606;2023-10-09T12:20:58;21.10;99.90
61339;DHT22;47213;52.362;4.606;2023-10-09T12:25:58;21.00;99.90
61339;DHT22;47213;52.362;4.606;2023-10-09T12:45:58;21.10;99.90
61339;DHT22;47213;52.362;4.606;2023-10-09T12:50:58;21.40;99.90
61339;DHT22;47213;52.362;4.606;2023-10-09T13:00:58;21.50;99.90
61339;DHT22;47213;52.362;4.606;2023-10-09T13:05:58;21.60;99.90
61339;DHT22;47213;52.362;4.606;2023-10-09T13:11:05;22.00;99.90
61339;DHT22;47213;52.362;4.606;2023-10-09T13:20:58;22.10;99.90
61339;DHT22;47213;52.362;4.606;2023-10-09T13:25:58;22.30;99.90
61339;DHT22;47213;52.362;4.606;2023-10-09T13:30:58;22.10;99.90
61339;DHT22;47213;52.362;4.606;2023-10-09T13:35:58;22.00;99.90
61339;DHT22;47213;52.362;4.606;2023-10-09T13:40:58;21.80;99.90
61339;DHT22;47213;52.362;4.606;2023-10-09T13:50:58;21.90;99.90
61339;DHT22;47213;52.362;4.606;2023-10-09T13:55:58;21.80;99.90
61339;DHT22;47213;52.362;4.606;2023-10-09T14:00:58;21.70;99.90
61339;DHT22;47213;52.362;4.606;2023-10-09T14:05:58;21.60;99.90
61339;DHT22;47213;52.362;4.606;2023-10-09T14:10:58;21.50;99.90
61339;DHT22;47213;52.362;4.606;2023-10-09T14:15:58;21.40;99.90
61339;DHT22;47213;52.362;4.606;2023-10-09T14:21:02;21.50;99.90
61339;DHT22;47213;52.362;4.606;2023-10-09T14:30:58;21.10;99.90
61339;DHT22;47213;52.362;4.606;2023-10-09T14:35:58;21.00;99.90
61339;DHT22;47213;52.362;4.606;2023-10-09T14:40:58;21.30;99.90
61339;DHT22;47213;52.362;4.606;2023-10-09T14:45:58;21.40;99.90
61339;DHT22;47213;52.362;4.606;2023-10-09T14:55:58;21.30;99.90
61339;DHT22;47213;52.362;4.606;2023-10-09T15:01:06;21.50;99.90
61339;DHT22;47213;52.362;4.606;2023-10-09T15:05:58;21.30;99.90
61339;DHT22;47213;52.362;4.606;2023-10-09T15:15:58;21.10;99.90
61339;DHT22;47213;52.362;4.606;2023-10-09T15:20:58;20.90;99.90
61339;DHT22;47213;52.362;4.606;2023-10-09T15:25:59;21.00;99.90
61339;DHT22;47213;52.362;4.606;2023-10-09T15:30:58;21.40;99.90
61339;DHT22;47213;52.362;4.606;2023-10-09T15:35:58;21.30;99.90
61339;DHT22;47213;52.362;4.606;2023-10-09T15:40:59;21.40;99.90
61339;DHT22;47213;52.362;4.606;2023-10-09T15:45:59;21.20;99.90
61339;DHT22;47213;52.362;4.606;2023-10-09T15:55:59;21.10;99.90
61339;DHT22;47213;52.362;4.606;2023-10-09T16:00:58;20.90;99.90
61339;DHT22;47213;52.362;4.606;2023-10-09T16:05:58;20.80;99.90
61339;DHT22;47213;52.362;4.606;2023-10-09T16:10:58;21.00;99.90
61339;DHT22;47213;52.362;4.606;2023-10-09T16:15:59;20.80;99.90
61339;DHT22;47213;52.362;4.606;2023-10-09T16:25:58;20.60;99.90
61339;DHT22;47213;52.362;4.606;2023-10-09T16:40:59;20.70;99.90
61339;DHT22;47213;52.362;4.606;2023-10-09T16:46:00;20.60;99.90
61339;DHT22;47213;52.362;4.606;2023-10-09T16:56:00;20.10;99.90
61339;DHT22;47213;52.362;4.606;2023-10-09T17:00:59;20.00;99.90
61339;DHT22;47213;52.362;4.606;2023-10-09T17:10:59;20.10;99.90
61339;DHT22;47213;52.362;4.606;2023-10-09T17:15:59;20.00;99.90
61339;DHT22;47213;52.362;4.606;2023-10-09T17:26:01;19.90;99.90
61339;DHT22;47213;52.362;4.606;2023-10-09T17:30:59;19.80;99.90
61339;DHT22;47213;52.362;4.606;2023-10-09T17:35:59;19.70;99.90
61339;DHT22;47213;52.362;4.606;2023-10-09T17:40:59;19.80;99.90
61339;DHT22;47213;52.362;4.606;2023-10-09T17:46:00;19.70;99.90
61339;DHT22;47213;52.362;4.606;2023-10-09T17:50:59;19.80;99.90
61339;DHT22;47213;52.362;4.606;2023-10-09T17:55:59;19.70;99.90
61339;DHT22;47213;52.362;4.606;2023-10-09T18:05:59;19.60;99.90
61339;DHT22;47213;52.362;4.606;2023-10-09T18:10:59;19.80;99.90
61339;DHT22;47213;52.362;4.606;2023-10-09T18:20:59;20.00;99.90
61339;DHT22;47213;52.362;4.606;2023-10-09T18:25:59;19.80;99.90
61339;DHT22;47213;52.362;4.606;2023-10-09T18:30:59;19.90;99.90
61339;DHT22;47213;52.362;4.606;2023-10-09T18:35:59;20.00;99.90
61339;DHT22;47213;52.362;4.606;2023-10-09T18:55:59;19.90;99.90
61339;DHT22;47213;52.362;4.606;2023-10-09T19:00:59;20.10;99.90
61339;DHT22;47213;52.362;4.606;2023-10-09T19:15:59;20.00;99.90
61339;DHT22;47213;52.362;4.606;2023-10-09T19:25:59;19.90;99.90
61339;DHT22;47213;52.362;4.606;2023-10-09T19:36:02;19.80;99.90
61339;DHT22;47213;52.362;4.606;2023-10-09T19:40:59;19.90;99.90
61339;DHT22;47213;52.362;4.606;2023-10-09T19:46:03;19.70;99.90
61339;DHT22;47213;52.362;4.606;2023-10-09T19:51:00;19.80;99.90
61339;DHT22;47213;52.362;4.606;2023-10-09T20:06:01;19.70;99.90
61339;DHT22;47213;52.362;4.606;2023-10-09T20:11:07;19.80;99.90
61339;DHT22;47213;52.362;4.606;2023-10-09T20:15:59;19.70;99.90
61339;DHT22;47213;52.362;4.606;2023-10-09T20:20:59;19.80;99.90
61339;DHT22;47213;52.362;4.606;2023-10-09T20:26:01;19.90;99.90
61339;DHT22;47213;52.362;4.606;2023-10-09T20:30:59;20.00;99.90
61339;DHT22;47213;52.362;4.606;2023-10-09T20:36:07;19.80;99.90
61339;DHT22;47213;52.362;4.606;2023-10-09T20:40:59;19.70;99.90
61339;DHT22;47213;52.362;4.606;2023-10-09T20:46:01;19.40;99.90
61339;DHT22;47213;52.362;4.606;2023-10-09T20:50:59;19.50;99.90
61339;DHT22;47213;52.362;4.606;2023-10-09T20:55:59;19.30;99.90
61339;DHT22;47213;52.362;4.606;2023-10-09T21:00:59;19.20;99.90
61339;DHT22;47213;52.362;4.606;2023-10-09T21:06:01;19.00;99.90
61339;DHT22;47213;52.362;4.606;2023-10-09T21:16:02;18.90;99.90
61339;DHT22;47213;52.362;4.606;2023-10-09T21:25:59;18.80;99.90
61339;DHT22;47213;52.362;4.606;2023-10-09T21:31:01;18.90;99.90
61339;DHT22;47213;52.362;4.606;2023-10-09T21:35:59;18.80;99.90
61339;DHT22;47213;52.362;4.606;2023-10-09T21:45:59;18.70;99.90
61339;DHT22;47213;52.362;4.606;2023-10-09T21:56:03;18.60;99.90
61339;DHT22;47213;52.362;4.606;2023-10-09T22:00:59;18.50;99.90
61339;DHT22;47213;52.362;4.606;2023-10-09T22:05:59;18.40;99.90
61339;DHT22;47213;52.362;4.606;2023-10-09T22:10:59;18.50;99.90
61339;DHT22;47213;52.362;4.606;2023-10-09T22:15:59;18.20;99.90
61339;DHT22;47213;52.362;4.606;2023-10-09T22:20:59;18.10;99.90
61339;DHT22;47213;52.362;4.606;2023-10-09T22:25:59;17.90;99.90
61339;DHT22;47213;52.362;4.606;2023-10-09T22:31:00;18.00;99.90
61339;DHT22;47213;52.362;4.606;2023-10-09T22:35:59;17.90;99.90
61339;DHT22;47213;52.362;4.606;2023-10-09T22:40:59;17.80;99.90
61339;DHT22;47213;52.362;4.606;2023-10-09T22:46:00;17.70;99.90
61339;DHT22;47213;52.362;4.606;2023-10-09T22:51:00;17.90;99.90
61339;DHT22;47213;52.362;4.606;2023-10-09T22:56:00;17.80;99.90
61339;DHT22;47213;52.362;4.606;2023-10-09T23:01:00;17.90;99.90
61339;DHT22;47213;52.362;4.606;2023-10-09T23:16:00;17.80;99.90
61339;DHT22;47213;52.362;4.606;2023-10-09T23:26:00;17.70;99.90
61339;DHT22;47213;52.362;4.606;2023-10-09T23:31:00;17.80;99.90
61339;DHT22;47213;52.362;4.606;2023-10-09T23:46:00;17.70;99.90
61339;DHT22;47213;52.362;4.606;2023-10-09T23:51:00;17.60;99.90
61339;DHT22;47213;52.362;4.606;2023-10-09T23:56:00;17.50;99.90
